»·PEaware :: N796TM KONT-KRNM

N796TM :: KONT-KRNM

FLIGHT INFORMATION

Flight Status: Arrived
Operator: Privately registered:
United States
More flights under this callsign
Pilot: Thomas J. (32264)
Aircraft: CESSNA 172 SKYHAWK
(C172)
More flights by this aircraft type
Origin: KONT Ontario Intl
United States
Destination: KRNM Ramona
United States
More flights between these airports :: More routes between these airports
Route: +
File this flight plan on PilotEdge
Remarks: FF
Altitude:
(Current/Filed)
7,500ft
Speed:
(Current/Filed)
130kts
Departed: 10-Nov-20 09:00 AM
Arrived: 10-Nov-20 09:40 AM
Distance/Time
Traveled:
70nm/0:40
Distance/Time
To Go:
Arrived

Flight Plot

Page will automatically refresh every two minutes.


Map Options




Map Legend


Flown Route
Filed Route
Departure Airport
Arrival Airport
Navaid (VOR, NDB)
Fix

Horizontal Profiles

Position Reports

Time Latitude Longitude Heading Altitude Ground
Speed
10-Nov-20 08:51 34.050549 -117.603907 53 908ft 0kts
10-Nov-20 08:52 34.050549 -117.603907 53 908ft 0kts
10-Nov-20 08:53 34.050549 -117.603907 53 908ft 0kts
10-Nov-20 08:54 34.050549 -117.603907 53 908ft 0kts
10-Nov-20 08:55 34.052781 -117.602976 31 917ft 18kts
10-Nov-20 08:56 34.053850 -117.596891 90 920ft 28kts
10-Nov-20 08:57 34.053867 -117.585939 87 921ft 33kts
10-Nov-20 08:58 34.054065 -117.582661 10 925ft 0kts
10-Nov-20 08:59 34.054955 -117.583244 269 928ft 19kts
10-Nov-20 09:00 34.054911 -117.606511 266 1610ft 80kts
10-Nov-20 09:01 34.037911 -117.616141 152 2307ft 101kts
10-Nov-20 09:02 34.011152 -117.600019 152 2927ft 108kts
10-Nov-20 09:03 33.981023 -117.581959 152 3016ft 119kts
10-Nov-20 09:04 33.953558 -117.563717 156 3721ft 111kts
10-Nov-20 09:04 33.928882 -117.553529 160 4315ft 111kts
10-Nov-20 09:06 33.896524 -117.541328 160 5094ft 110kts
10-Nov-20 09:06 33.876942 -117.533985 160 5559ft 109kts
10-Nov-20 09:08 33.840545 -117.520395 160 6168ft 121kts
10-Nov-20 09:08 33.816021 -117.511245 160 6627ft 116kts
10-Nov-20 09:10 33.779610 -117.496850 149 7341ft 112kts
10-Nov-20 09:10 33.755078 -117.479242 145 7507ft 133kts
10-Nov-20 09:11 33.721977 -117.454550 145 7499ft 140kts
10-Nov-20 09:12 33.689709 -117.430453 145 7495ft 130kts
10-Nov-20 09:13 33.658217 -117.406911 145 7492ft 133kts
10-Nov-20 09:14 33.626553 -117.383277 145 7491ft 133kts
10-Nov-20 09:15 33.594945 -117.359694 145 7490ft 133kts
10-Nov-20 09:16 33.567283 -117.339153 146 6673ft 131kts
10-Nov-20 09:17 33.536416 -117.316198 146 5652ft 127kts
10-Nov-20 09:18 33.507150 -117.294363 146 5491ft 126kts
10-Nov-20 09:19 33.477030 -117.271948 146 5501ft 125kts
10-Nov-20 09:20 33.447667 -117.250082 146 5846ft 127kts
10-Nov-20 09:21 33.421683 -117.231060 145 5162ft 122kts
10-Nov-20 09:22 33.393781 -117.210120 146 5507ft 127kts
10-Nov-20 09:23 33.364383 -117.188433 146 4038ft 123kts
10-Nov-20 09:24 33.335336 -117.166887 146 3509ft 121kts
10-Nov-20 09:25 33.306523 -117.145559 146 3505ft 121kts
10-Nov-20 09:26 33.277631 -117.124199 146 3501ft 121kts
10-Nov-20 09:27 33.249955 -117.101091 142 3500ft 120kts
10-Nov-20 09:28 33.222957 -117.077237 142 3500ft 120kts
10-Nov-20 09:29 33.196052 -117.053469 142 3500ft 119kts
10-Nov-20 09:30 33.171411 -117.031716 142 3500ft 109kts
10-Nov-20 09:31 33.148233 -117.011295 142 3352ft 94kts
10-Nov-20 09:32 33.127837 -116.993316 142 2750ft 90kts
10-Nov-20 09:33 33.108295 -116.976105 142 2287ft 76kts
10-Nov-20 09:34 33.091512 -116.957248 134 2295ft 93kts
10-Nov-20 09:35 33.073702 -116.936552 133 2421ft 89kts
10-Nov-20 09:36 33.054103 -116.913804 127 2117ft 105kts
10-Nov-20 09:37 33.048201 -116.887172 112 2032ft 68kts
10-Nov-20 09:38 33.036010 -116.894360 276 1895ft 75kts
10-Nov-20 09:39 33.039180 -116.914949 305 1391ft 8kts
10-Nov-20 09:40 33.039573 -116.913354 97 1394ft 17kts

Navigation Log

Ident Type
Flight plan parsing failed, navigation log unavailable